createdAt,value
2019-05-09T00:00:45.263Z,5.25
2019-05-09T00:05:49.126Z,6.28
2019-05-09T00:10:54.358Z,4.60
2019-05-09T00:15:58.118Z,5.47
2019-05-09T00:21:09.515Z,5.85
2019-05-09T00:26:13.555Z,6.22
2019-05-09T00:31:34.360Z,4.83
2019-05-09T00:36:38.211Z,6.22
2019-05-09T00:41:43.547Z,5.28
2019-05-09T00:46:53.559Z,6.65
2019-05-09T00:51:57.233Z,6.22
2019-05-09T00:57:03.040Z,7.30
2019-05-09T01:02:06.543Z,7.03
2019-05-09T01:07:10.375Z,8.45
2019-05-09T01:12:14.393Z,6.95
2019-05-09T01:17:18.213Z,5.85
2019-05-09T01:22:23.636Z,4.55
2019-05-09T01:27:27.658Z,6.03
2019-05-09T01:32:34.288Z,5.33
2019-05-09T01:37:38.523Z,5.03
2019-05-09T01:42:43.242Z,5.85
2019-05-09T01:47:47.330Z,5.85
2019-05-09T01:52:53.370Z,5.65
2019-05-09T01:57:57.022Z,7.17
2019-05-09T02:03:00.869Z,5.28
2019-05-09T02:08:04.799Z,5.37
2019-05-09T02:13:09.942Z,8.48
2019-05-09T02:18:18.301Z,6.15
2019-05-09T02:23:23.318Z,6.62
2019-05-09T02:28:27.250Z,7.25
2019-05-09T02:33:33.888Z,7.90
2019-05-09T02:38:39.093Z,6.62
2019-05-09T02:43:41.938Z,6.85
2019-05-09T02:48:49.232Z,6.00
2019-05-09T02:53:51.416Z,7.08
2019-05-09T02:58:58.950Z,7.40
2019-05-09T03:04:02.615Z,7.08
2019-05-09T03:09:08.839Z,7.62
2019-05-09T03:14:12.969Z,6.50
2019-05-09T03:19:19.560Z,7.90
2019-05-09T03:24:22.412Z,8.65
2019-05-09T03:29:29.195Z,7.87
2019-05-09T18:03:02.075Z,29.95
2019-05-09T18:08:08.074Z,26.35
2019-05-09T18:13:13.458Z,32.98
2019-05-09T18:18:18.414Z,32.85
2019-05-09T18:23:22.682Z,33.78
2019-05-09T18:28:29.307Z,37.03
2019-05-09T18:33:43.073Z,34.33
2019-05-09T18:38:48.067Z,38.53
2019-05-09T18:43:57.507Z,40.45
2019-05-09T18:49:03.697Z,41.30
2019-05-09T18:54:07.424Z,38.95
2019-05-09T18:59:14.060Z,40.85
2019-05-09T19:04:17.888Z,35.52
2019-05-09T19:09:21.685Z,31.23
2019-05-09T19:14:25.715Z,33.45
2019-05-09T19:19:34.075Z,29.30
2019-05-09T19:24:37.935Z,27.37
2019-05-09T19:29:41.879Z,29.27
2019-05-09T19:34:45.661Z,28.35
2019-05-09T19:39:49.467Z,27.13
2019-05-09T19:44:53.364Z,26.20
2019-05-09T19:49:56.931Z,25.62
2019-05-09T19:55:00.858Z,29.80
2019-05-09T20:00:06.787Z,25.32
2019-05-09T20:05:10.644Z,25.90
2019-05-09T20:10:16.158Z,26.85
2019-05-09T20:15:22.947Z,21.23
2019-05-09T20:20:30.028Z,28.75
2019-05-09T20:25:36.334Z,26.40
2019-05-09T20:30:40.422Z,22.80
2019-05-09T20:35:44.375Z,24.45
2019-05-09T20:40:48.385Z,23.05
2019-05-09T20:45:54.026Z,20.95
2019-05-09T20:50:58.107Z,22.42
2019-05-09T20:56:02.349Z,24.20
2019-05-09T21:01:06.435Z,26.05
2019-05-09T21:06:10.416Z,29.80
2019-05-09T21:11:14.416Z,23.22
2019-05-09T21:16:18.367Z,26.95
2019-05-09T21:21:22.319Z,28.30
2019-05-09T21:26:26.586Z,22.17
2019-05-09T21:31:30.667Z,23.10
2019-05-09T21:36:34.518Z,22.52
2019-05-09T21:41:38.297Z,21.17
2019-05-09T21:46:42.384Z,22.50
2019-05-09T21:51:46.105Z,19.07
2019-05-09T21:56:50.080Z,21.02
2019-05-09T22:01:54.057Z,21.57
2019-05-09T22:06:57.762Z,21.57
2019-05-09T22:12:01.641Z,21.33
2019-05-09T22:17:19.187Z,22.05
2019-05-09T22:22:23.296Z,23.40
2019-05-09T22:27:27.220Z,20.90
2019-05-09T22:32:31.099Z,19.27
2019-05-09T22:37:34.999Z,20.88
2019-05-09T22:42:38.866Z,17.87
2019-05-09T22:47:42.535Z,17.67
2019-05-09T22:52:46.361Z,16.30
2019-05-09T22:57:50.110Z,17.55
2019-05-09T23:02:53.880Z,18.25
2019-05-09T23:07:57.745Z,18.00
2019-05-09T23:13:01.410Z,15.48
2019-05-09T23:18:05.284Z,17.05
2019-05-09T23:23:13.610Z,14.95
2019-05-09T23:28:17.613Z,15.88
2019-05-09T23:33:22.278Z,15.72
2019-05-09T23:38:26.023Z,13.93
2019-05-09T23:43:29.748Z,16.27
2019-05-09T23:48:33.589Z,14.90
2019-05-09T23:53:37.814Z,15.88
2019-05-09T23:59:01.121Z,15.98
